createdAt,value
2023-05-01T00:00:58.602Z,55.84
2023-05-01T00:03:25.838Z,55.89
2023-05-01T00:05:59.703Z,55.98
2023-05-01T00:08:26.793Z,55.81
2023-05-01T00:10:54.287Z,55.83
2023-05-01T00:13:23.462Z,55.85
2023-05-01T00:15:51.086Z,56.13
2023-05-01T00:18:18.502Z,55.98
2023-05-01T00:20:45.561Z,56.04
2023-05-01T00:23:13.142Z,56.07
2023-05-01T00:25:40.822Z,55.95
2023-05-01T00:28:07.997Z,55.97
2023-05-01T00:30:36.009Z,56.02
2023-05-01T00:33:03.244Z,55.89
2023-05-01T00:35:31.437Z,56.01
2023-05-01T00:37:59.001Z,55.97
2023-05-01T00:40:26.148Z,56.09
2023-05-01T00:42:53.112Z,56.07
2023-05-01T00:45:20.763Z,56.16
2023-05-01T00:47:48.372Z,56.07
2023-05-01T00:50:15.459Z,56.18
2023-05-01T00:52:42.828Z,56.13
2023-05-01T00:55:10.063Z,56.02
2023-05-01T00:57:37.487Z,56.06
2023-05-01T01:00:05.751Z,56.25
2023-05-01T01:02:33.318Z,56.13
2023-05-01T01:05:00.542Z,56.06
2023-05-01T01:08:09.570Z,56.26
2023-05-01T01:10:42.517Z,56.16
2023-05-01T01:13:15.215Z,56.27
2023-05-01T01:16:08.265Z,56.31
2023-05-01T01:18:48.936Z,56.31
2023-05-01T01:21:23.914Z,56.25
2023-05-01T01:24:03.808Z,56.40
2023-05-01T01:26:50.707Z,56.36
2023-05-01T01:29:44.724Z,56.49
2023-05-01T01:32:24.247Z,56.45
2023-05-01T01:34:55.681Z,56.18
2023-05-01T01:37:33.734Z,56.48
2023-05-01T01:40:08.266Z,56.51
2023-05-01T01:42:49.907Z,56.40
2023-05-01T01:45:23.530Z,56.42
2023-05-01T01:47:53.591Z,56.38
2023-05-01T01:50:25.051Z,56.38
2023-05-01T01:52:53.461Z,56.44
2023-05-01T01:55:25.725Z,56.68
2023-05-01T01:57:53.586Z,56.40
2023-05-01T02:00:22.131Z,56.44
2023-05-01T02:02:51.193Z,56.50
2023-05-01T02:05:20.612Z,56.53
2023-05-01T02:07:50.652Z,56.67
2023-05-01T02:10:19.308Z,56.63
2023-05-01T02:12:48.796Z,56.53
2023-05-01T02:15:18.659Z,56.66
2023-05-01T02:17:46.410Z,56.69
2023-05-01T02:20:14.469Z,56.50
2023-05-01T02:22:42.471Z,56.51
2023-05-01T02:25:12.376Z,56.57
2023-05-01T02:27:45.301Z,56.59
2023-05-01T02:30:12.804Z,56.71
2023-05-01T02:32:40.267Z,56.50
2023-05-01T02:35:08.168Z,56.68
2023-05-01T02:37:35.110Z,56.75
2023-05-01T02:40:03.376Z,56.81
2023-05-01T02:42:32.062Z,56.60
2023-05-01T02:45:04.378Z,56.59
2023-05-01T02:47:34.176Z,56.68
2023-05-01T02:50:02.439Z,56.75
2023-05-01T02:52:29.935Z,56.66
2023-05-01T02:54:57.563Z,56.83
2023-05-01T02:57:24.717Z,56.75
2023-05-01T02:59:51.642Z,56.65
2023-05-01T03:02:18.846Z,56.85
2023-05-01T03:04:45.863Z,56.63
2023-05-01T03:07:12.872Z,56.79
2023-05-01T03:09:39.872Z,56.78
2023-05-01T03:12:06.826Z,56.85
2023-05-01T03:14:33.844Z,56.87
2023-05-01T03:17:01.199Z,56.68
2023-05-01T03:19:28.446Z,56.75
2023-05-01T03:21:55.391Z,56.77
2023-05-01T03:24:22.246Z,56.68
2023-05-01T03:26:49.179Z,56.76
2023-05-01T03:29:16.137Z,56.82
2023-05-01T03:31:43.113Z,56.74
2023-05-01T03:34:10.098Z,56.70
2023-05-01T03:36:37.043Z,56.95
2023-05-01T03:39:05.228Z,56.72
2023-05-01T03:41:32.168Z,56.78
2023-05-01T03:43:59.192Z,56.65
2023-05-01T03:46:26.216Z,56.53
2023-05-01T03:48:53.171Z,56.60
2023-05-01T03:51:20.167Z,56.62
2023-05-01T03:53:47.065Z,56.64
2023-05-01T03:56:14.227Z,56.70
2023-05-01T03:58:41.336Z,56.53
2023-05-01T04:01:08.249Z,56.66
2023-05-01T04:03:35.263Z,56.57
2023-05-01T04:06:02.915Z,56.52
2023-05-01T04:08:29.943Z,56.57
2023-05-01T04:10:56.986Z,56.64
2023-05-01T04:13:23.924Z,56.67
2023-05-01T04:15:50.894Z,56.49
2023-05-01T04:18:17.918Z,56.60
2023-05-01T04:20:45.015Z,56.68
2023-05-01T04:23:12.489Z,56.71
2023-05-01T04:25:39.508Z,56.73
2023-05-01T04:28:06.449Z,56.61
2023-05-01T04:30:34.251Z,56.60
2023-05-01T04:33:02.171Z,56.64
2023-05-01T04:35:29.189Z,56.54
2023-05-01T04:37:56.169Z,56.62
2023-05-01T04:40:23.099Z,56.56
2023-05-01T04:42:50.080Z,56.46
2023-05-01T04:45:17.176Z,56.62
2023-05-01T04:47:44.707Z,56.65
2023-05-01T04:50:12.234Z,56.50
2023-05-01T04:52:39.556Z,56.43
2023-05-01T04:55:07.088Z,56.68
2023-05-01T04:57:34.107Z,56.63
2023-05-01T05:00:01.297Z,56.49
2023-05-01T05:02:28.279Z,56.51
2023-05-01T05:04:56.706Z,56.45
2023-05-01T05:07:23.972Z,56.67
2023-05-01T05:09:51.251Z,56.30
2023-05-01T05:12:18.241Z,56.78
2023-05-01T05:14:45.341Z,56.76
2023-05-01T05:17:12.379Z,56.57
2023-05-01T05:19:39.435Z,56.55
2023-05-01T05:22:06.419Z,56.40
2023-05-01T05:24:33.473Z,56.57
2023-05-01T05:27:00.390Z,56.42
2023-05-01T05:29:27.550Z,56.50
2023-05-01T05:31:54.633Z,56.28
2023-05-01T05:34:21.688Z,56.64
2023-05-01T05:36:48.655Z,57.25
2023-05-01T05:39:15.857Z,56.85
2023-05-01T05:41:42.838Z,56.75
2023-05-01T05:44:09.839Z,57.14
2023-05-01T05:46:36.890Z,57.22
2023-05-01T05:49:03.867Z,57.51
2023-05-01T05:51:30.843Z,57.09
2023-05-01T05:53:57.925Z,57.32
2023-05-01T05:56:24.920Z,57.22
2023-05-01T05:58:51.886Z,57.32
2023-05-01T06:01:18.886Z,57.55
2023-05-01T06:03:45.865Z,57.39
2023-05-01T06:06:13.333Z,57.45
2023-05-01T06:08:40.395Z,57.80
2023-05-01T06:11:09.473Z,57.81
2023-05-01T06:13:36.813Z,58.15
2023-05-01T06:16:04.270Z,58.26
2023-05-01T06:18:31.506Z,58.10
2023-05-01T06:20:58.829Z,58.06
2023-05-01T06:23:26.144Z,57.99
2023-05-01T06:25:53.171Z,58.32
2023-05-01T06:28:20.266Z,58.43
2023-05-01T06:30:48.168Z,58.31
2023-05-01T06:33:15.575Z,58.46
2023-05-01T06:35:42.835Z,58.36
2023-05-01T06:38:09.884Z,58.22
2023-05-01T06:40:37.021Z,58.15
2023-05-01T06:43:04.610Z,58.03
2023-05-01T06:45:31.654Z,58.28
2023-05-01T06:47:58.907Z,58.16
2023-05-01T06:50:26.118Z,58.11
2023-05-01T06:52:53.068Z,57.91
2023-05-01T06:55:20.181Z,58.20
2023-05-01T06:57:47.126Z,57.85
2023-05-01T07:00:15.504Z,57.87
2023-05-01T07:02:42.775Z,57.73
2023-05-01T07:05:09.927Z,57.77
2023-05-01T07:07:38.878Z,58.03
2023-05-01T07:10:09.535Z,57.80
2023-05-01T07:12:37.590Z,57.82
2023-05-01T07:15:05.033Z,58.09
2023-05-01T07:17:32.096Z,58.03
2023-05-01T07:19:59.785Z,58.17
2023-05-01T07:22:26.946Z,57.93
2023-05-01T07:24:54.143Z,58.30
2023-05-01T07:27:21.497Z,58.28
2023-05-01T07:29:48.493Z,58.21
2023-05-01T07:32:16.065Z,58.23
2023-05-01T07:34:43.285Z,58.21
2023-05-01T07:37:10.371Z,58.17
2023-05-01T07:39:37.438Z,58.26
2023-05-01T07:42:07.920Z,58.20
2023-05-01T07:44:34.903Z,58.00
2023-05-01T07:47:06.220Z,58.09
2023-05-01T07:49:38.372Z,58.09
2023-05-01T07:52:08.780Z,57.95
2023-05-01T07:54:36.174Z,57.97
2023-05-01T07:57:04.169Z,58.02
2023-05-01T07:59:31.219Z,58.11
2023-05-01T08:01:58.416Z,57.77
2023-05-01T08:04:25.636Z,57.73
2023-05-01T08:06:52.913Z,57.78
2023-05-01T08:09:20.047Z,57.75
2023-05-01T08:11:47.127Z,57.21
2023-05-01T08:14:14.557Z,57.20
2023-05-01T08:16:41.867Z,57.00
2023-05-01T08:19:09.363Z,57.08
2023-05-01T08:21:36.412Z,56.87
2023-05-01T08:24:04.083Z,56.91
2023-05-01T08:26:31.133Z,56.82
2023-05-01T08:28:58.125Z,56.66
2023-05-01T08:31:26.269Z,56.70
2023-05-01T08:33:53.472Z,56.66
2023-05-01T08:36:21.393Z,56.52
2023-05-01T08:38:48.924Z,56.50
2023-05-01T08:41:23.329Z,56.61
2023-05-01T08:43:50.962Z,56.63
2023-05-01T08:46:26.339Z,56.56
2023-05-01T08:48:57.806Z,56.70
2023-05-01T08:51:26.540Z,56.88
2023-05-01T08:53:58.350Z,56.56
2023-05-01T08:56:26.034Z,56.63
2023-05-01T08:58:56.607Z,56.40
2023-05-01T09:01:24.662Z,56.15
2023-05-01T09:03:53.487Z,56.21
2023-05-01T09:06:21.926Z,56.15
2023-05-01T09:08:49.329Z,56.15
2023-05-01T09:11:17.024Z,55.97
2023-05-01T09:13:44.626Z,55.70
2023-05-01T09:16:12.287Z,56.00
2023-05-01T09:18:41.541Z,55.96
2023-05-01T09:21:08.942Z,56.18
2023-05-01T09:23:38.208Z,56.16
2023-05-01T09:26:07.422Z,55.91
2023-05-01T09:28:48.467Z,56.27
2023-05-01T09:31:28.282Z,56.38
2023-05-01T09:34:01.193Z,56.43
2023-05-01T09:36:33.103Z,56.35
2023-05-01T09:39:04.596Z,56.13
2023-05-01T09:41:33.622Z,56.40
2023-05-01T09:44:01.927Z,56.35
2023-05-01T09:46:29.286Z,56.40
2023-05-01T09:49:01.561Z,56.08
2023-05-01T09:51:28.719Z,56.45
2023-05-01T09:54:04.835Z,56.65
2023-05-01T09:56:34.565Z,56.94
2023-05-01T09:59:20.519Z,56.89
2023-05-01T10:01:50.138Z,56.89
2023-05-01T10:04:17.846Z,56.99
2023-05-01T10:06:45.236Z,57.09
2023-05-01T10:09:17.834Z,56.91
2023-05-01T10:11:56.554Z,57.07
2023-05-01T10:14:28.589Z,56.96
2023-05-01T10:16:58.385Z,56.98
2023-05-01T10:19:26.093Z,56.94
2023-05-01T10:21:53.920Z,57.12
2023-05-01T10:24:21.334Z,57.22
2023-05-01T10:26:49.306Z,57.12
2023-05-01T10:29:16.771Z,57.07
2023-05-01T10:31:44.001Z,56.97
2023-05-01T10:34:17.189Z,57.10
2023-05-01T10:36:50.071Z,56.88
2023-05-01T10:39:33.084Z,56.98
2023-05-01T10:42:15.342Z,57.03
2023-05-01T10:44:43.342Z,56.89
2023-05-01T10:47:25.785Z,57.02
2023-05-01T10:50:10.251Z,56.95
2023-05-01T10:53:12.079Z,56.97
2023-05-01T10:55:43.988Z,56.67
2023-05-01T10:58:35.100Z,56.82
2023-05-01T11:01:31.715Z,57.02
2023-05-01T11:04:08.785Z,56.41
2023-05-01T11:06:38.595Z,56.30
2023-05-01T11:09:36.582Z,56.19
2023-05-01T11:12:04.294Z,56.69
2023-05-01T11:15:04.176Z,56.63
2023-05-01T11:17:40.401Z,56.23
2023-05-01T11:20:08.276Z,56.06
2023-05-01T11:22:36.813Z,55.80
2023-05-01T11:25:05.621Z,55.32
2023-05-01T11:27:32.789Z,55.42
2023-05-01T11:30:00.615Z,55.44
2023-05-01T11:32:30.551Z,55.41
2023-05-01T11:34:58.352Z,55.51
2023-05-01T11:37:45.239Z,55.24
2023-05-01T11:40:29.860Z,54.84
2023-05-01T11:43:03.121Z,55.63
2023-05-01T11:45:31.179Z,55.83
2023-05-01T11:48:00.557Z,56.36
2023-05-01T11:50:38.246Z,56.61
2023-05-01T11:53:21.364Z,57.02
2023-05-01T11:55:49.945Z,56.66
2023-05-01T11:58:17.473Z,56.63
2023-05-01T12:00:44.639Z,57.14
2023-05-01T12:03:15.673Z,56.83
2023-05-01T12:05:44.315Z,57.22
2023-05-01T12:08:15.379Z,56.82
2023-05-01T12:10:43.925Z,56.66
2023-05-01T12:13:13.916Z,56.35
2023-05-01T12:15:43.998Z,56.76
2023-05-01T12:18:15.247Z,56.57
2023-05-01T12:20:53.639Z,56.42
2023-05-01T12:23:32.015Z,56.46
2023-05-01T12:25:59.440Z,56.01
2023-05-01T12:28:28.125Z,56.02
2023-05-01T12:31:04.915Z,56.18
2023-05-01T12:33:32.782Z,56.18
2023-05-01T12:36:12.331Z,56.23
2023-05-01T12:38:39.465Z,55.88
2023-05-01T12:41:09.249Z,54.37
2023-05-01T12:43:38.532Z,54.48
2023-05-01T12:46:07.163Z,54.04
2023-05-01T12:48:39.699Z,54.25
2023-05-01T12:51:08.082Z,54.11
2023-05-01T12:53:35.882Z,53.67
2023-05-01T12:56:03.932Z,53.56
2023-05-01T12:58:37.663Z,53.71
2023-05-01T13:01:05.526Z,53.43
2023-05-01T13:03:34.290Z,53.99
2023-05-01T13:06:04.209Z,54.18
2023-05-01T13:08:34.806Z,54.34
2023-05-01T13:11:10.772Z,54.04
2023-05-01T13:13:37.958Z,53.72
2023-05-01T13:16:26.701Z,53.42
2023-05-01T13:18:54.106Z,53.38
2023-05-01T13:21:22.824Z,53.10
2023-05-01T13:23:55.767Z,52.99
2023-05-01T13:26:36.192Z,53.47
2023-05-01T13:29:06.585Z,53.52
2023-05-01T13:31:33.668Z,53.33
2023-05-01T13:34:01.342Z,53.62
2023-05-01T13:36:35.646Z,52.93
2023-05-01T13:39:03.548Z,52.58
2023-05-01T13:41:31.098Z,52.62
2023-05-01T13:43:58.353Z,52.75
2023-05-01T13:46:28.121Z,52.93
2023-05-01T13:48:55.665Z,52.57
2023-05-01T13:51:24.981Z,52.43
2023-05-01T13:53:54.306Z,52.47
2023-05-01T13:56:22.521Z,52.42
2023-05-01T13:58:50.797Z,52.28
2023-05-01T14:01:21.260Z,52.18
2023-05-01T14:03:49.659Z,52.26
2023-05-01T14:06:19.538Z,51.98
2023-05-01T14:08:48.292Z,52.40
2023-05-01T14:11:16.268Z,52.17
2023-05-01T14:13:48.896Z,51.82
2023-05-01T14:16:27.911Z,51.57
2023-05-01T14:18:57.643Z,52.35
2023-05-01T14:21:30.316Z,52.82
2023-05-01T14:23:58.583Z,53.35
2023-05-01T14:26:26.038Z,53.74
2023-05-01T14:28:53.143Z,53.72
2023-05-01T14:31:29.245Z,54.09
2023-05-01T14:33:57.986Z,54.20
2023-05-01T14:36:25.492Z,54.23
2023-05-01T14:38:53.487Z,52.53
2023-05-01T14:41:21.564Z,52.59
2023-05-01T14:43:54.058Z,53.56
2023-05-01T14:46:46.576Z,53.78
2023-05-01T14:49:24.736Z,53.94
2023-05-01T14:51:53.659Z,53.91
2023-05-01T14:54:21.715Z,54.47
2023-05-01T14:56:49.954Z,54.43
2023-05-01T14:59:17.596Z,54.83
2023-05-01T15:01:45.158Z,54.94
2023-05-01T15:04:15.379Z,55.15
2023-05-01T15:06:43.048Z,55.01
2023-05-01T15:09:10.245Z,54.02
2023-05-01T15:11:38.389Z,54.17
2023-05-01T15:14:06.583Z,54.53
2023-05-01T15:16:33.928Z,54.36
2023-05-01T15:19:01.875Z,54.46
2023-05-01T15:21:29.324Z,54.37
2023-05-01T15:23:56.520Z,54.59
2023-05-01T15:26:23.835Z,54.73
2023-05-01T15:28:51.207Z,54.83
2023-05-01T15:31:20.055Z,54.79
2023-05-01T15:33:47.936Z,54.79
2023-05-01T15:36:15.706Z,54.79
2023-05-01T15:38:43.096Z,54.81
2023-05-01T15:41:10.361Z,54.76
2023-05-01T15:43:38.550Z,53.79
2023-05-01T15:46:07.028Z,54.31
2023-05-01T15:48:34.708Z,54.00
2023-05-01T15:51:01.860Z,54.21
2023-05-01T15:53:29.389Z,54.29
2023-05-01T15:55:59.632Z,54.41
2023-05-01T15:58:26.783Z,54.27
2023-05-01T16:00:54.026Z,54.14
2023-05-01T16:03:21.868Z,54.19
2023-05-01T16:05:49.743Z,54.38
2023-05-01T16:08:19.473Z,54.38
2023-05-01T16:10:46.845Z,54.20
2023-05-01T16:13:15.170Z,54.08
2023-05-01T16:15:43.714Z,54.27
2023-05-01T16:18:21.292Z,53.90
2023-05-01T16:20:54.697Z,53.91
2023-05-01T16:23:23.240Z,53.66
2023-05-01T16:25:51.775Z,53.56
2023-05-01T16:28:19.690Z,53.77
2023-05-01T16:30:48.078Z,53.57
2023-05-01T16:33:21.505Z,53.47
2023-05-01T16:35:50.164Z,53.35
2023-05-01T16:38:18.383Z,53.52
2023-05-01T16:40:47.323Z,53.48
2023-05-01T16:43:14.444Z,53.55
2023-05-01T16:45:41.803Z,53.61
2023-05-01T16:48:09.046Z,53.43
2023-05-01T16:50:41.913Z,53.40
2023-05-01T16:53:09.130Z,53.56
2023-05-01T16:55:36.274Z,53.57
2023-05-01T16:58:03.552Z,53.48
2023-05-01T17:00:31.689Z,53.16
2023-05-01T17:02:59.555Z,53.21
2023-05-01T17:05:26.877Z,53.25
2023-05-01T17:07:54.693Z,53.11
2023-05-01T17:10:21.824Z,52.95
2023-05-01T17:12:48.993Z,52.87
2023-05-01T17:15:16.327Z,52.48
2023-05-01T17:17:43.387Z,52.53
2023-05-01T17:20:11.864Z,52.29
2023-05-01T17:22:38.963Z,52.09
2023-05-01T17:25:06.654Z,52.03
2023-05-01T17:27:34.349Z,52.00
2023-05-01T17:30:01.754Z,51.89
2023-05-01T17:32:36.536Z,51.58
2023-05-01T17:35:05.926Z,51.64
2023-05-01T17:37:33.469Z,51.87
2023-05-01T17:40:00.993Z,51.84
2023-05-01T17:42:28.643Z,52.04
2023-05-01T17:44:55.904Z,52.07
2023-05-01T17:47:25.917Z,51.98
2023-05-01T17:49:53.900Z,51.62
2023-05-01T17:52:21.536Z,51.75
2023-05-01T17:54:48.623Z,51.93
2023-05-01T17:57:16.286Z,51.53
2023-05-01T17:59:44.086Z,51.79
2023-05-01T18:02:11.612Z,51.55
2023-05-01T18:04:39.048Z,51.23
2023-05-01T18:07:06.788Z,51.61
2023-05-01T18:09:33.879Z,51.30
2023-05-01T18:12:00.960Z,51.45
2023-05-01T18:14:28.618Z,51.11
2023-05-01T18:16:56.162Z,51.35
2023-05-01T18:19:24.220Z,51.46
2023-05-01T18:21:51.845Z,51.31
2023-05-01T18:24:19.468Z,51.68
2023-05-01T18:26:47.015Z,51.45
2023-05-01T18:29:14.848Z,51.78
2023-05-01T18:31:42.827Z,51.80
2023-05-01T18:34:12.400Z,51.44
2023-05-01T18:36:39.797Z,51.72
2023-05-01T18:39:13.563Z,51.52
2023-05-01T18:41:41.166Z,51.71
2023-05-01T18:44:08.559Z,51.57
2023-05-01T18:46:37.330Z,51.40
2023-05-01T18:49:05.259Z,51.55
2023-05-01T18:51:32.817Z,51.19
2023-05-01T18:54:01.667Z,51.17
2023-05-01T18:56:31.630Z,50.77
2023-05-01T18:58:59.001Z,50.61
2023-05-01T19:01:26.760Z,50.71
2023-05-01T19:03:59.310Z,50.24
2023-05-01T19:06:27.401Z,50.31
2023-05-01T19:08:55.290Z,50.60
2023-05-01T19:11:23.998Z,49.97
2023-05-01T19:13:51.318Z,49.50
2023-05-01T19:16:20.725Z,49.59
2023-05-01T19:18:49.130Z,49.85
2023-05-01T19:21:16.613Z,49.73
2023-05-01T19:23:44.032Z,49.42
2023-05-01T19:26:16.145Z,49.42
2023-05-01T19:28:45.303Z,49.77
2023-05-01T19:31:14.602Z,48.48
2023-05-01T19:33:41.967Z,48.59
2023-05-01T19:36:10.101Z,48.87
2023-05-01T19:38:37.648Z,49.29
2023-05-01T19:41:05.215Z,48.62
2023-05-01T19:43:34.045Z,49.04
2023-05-01T19:46:01.761Z,48.72
2023-05-01T19:48:29.991Z,48.59
2023-05-01T19:51:00.496Z,48.58
2023-05-01T19:53:31.857Z,48.52
2023-05-01T19:56:03.582Z,48.33
2023-05-01T19:58:31.194Z,48.15
2023-05-01T20:01:02.741Z,48.28
2023-05-01T20:03:30.290Z,48.51
2023-05-01T20:05:58.176Z,48.39
2023-05-01T20:08:25.748Z,48.63
2023-05-01T20:10:53.170Z,48.51
2023-05-01T20:13:20.678Z,48.69
2023-05-01T20:15:48.326Z,48.63
2023-05-01T20:18:18.813Z,48.54
2023-05-01T20:20:46.517Z,48.58
2023-05-01T20:23:15.662Z,48.61
2023-05-01T20:25:44.140Z,48.74
2023-05-01T20:28:15.029Z,48.72
2023-05-01T20:30:44.247Z,48.63
2023-05-01T20:33:12.472Z,48.94
2023-05-01T20:35:40.969Z,49.22
2023-05-01T20:38:08.442Z,49.42
2023-05-01T20:40:41.596Z,49.21
2023-05-01T20:43:09.152Z,48.86
2023-05-01T20:45:36.499Z,49.05
2023-05-01T20:48:04.030Z,48.90
2023-05-01T20:50:32.856Z,49.20
2023-05-01T20:53:04.503Z,47.90
2023-05-01T20:55:34.120Z,48.15
2023-05-01T20:58:01.536Z,49.04
2023-05-01T21:00:28.865Z,49.23
2023-05-01T21:02:58.449Z,49.59
2023-05-01T21:05:27.063Z,49.63
2023-05-01T21:07:54.347Z,49.80
2023-05-01T21:10:21.923Z,49.89
2023-05-01T21:12:49.272Z,49.92
2023-05-01T21:15:16.585Z,50.22
2023-05-01T21:17:43.908Z,50.29
2023-05-01T21:20:19.809Z,50.34
2023-05-01T21:22:49.180Z,50.36
2023-05-01T21:25:27.596Z,50.58
2023-05-01T21:27:55.041Z,50.58
2023-05-01T21:30:36.012Z,50.56
2023-05-01T21:33:09.461Z,50.60
2023-05-01T21:35:38.105Z,50.59
2023-05-01T21:38:06.337Z,50.81
2023-05-01T21:40:43.980Z,51.00
2023-05-01T21:43:11.527Z,51.07
2023-05-01T21:45:44.253Z,51.04
2023-05-01T21:48:16.779Z,51.23
2023-05-01T21:50:44.276Z,51.27
2023-05-01T21:53:11.945Z,51.40
2023-05-01T21:55:39.755Z,51.44
2023-05-01T21:58:07.188Z,51.38
2023-05-01T22:00:34.926Z,51.40
2023-05-01T22:03:06.608Z,51.53
2023-05-01T22:05:34.960Z,51.59
2023-05-01T22:08:02.297Z,51.61
2023-05-01T22:10:30.281Z,51.74
2023-05-01T22:12:57.548Z,51.85
2023-05-01T22:15:26.212Z,51.68
2023-05-01T22:17:53.624Z,51.75
2023-05-01T22:20:21.143Z,51.93
2023-05-01T22:22:48.411Z,52.08
2023-05-01T22:25:16.782Z,52.05
2023-05-01T22:27:44.148Z,52.03
2023-05-01T22:30:12.503Z,52.22
2023-05-01T22:32:41.309Z,52.25
2023-05-01T22:35:09.263Z,52.23
2023-05-01T22:37:36.662Z,52.30
2023-05-01T22:40:04.174Z,52.23
2023-05-01T22:42:31.415Z,52.27
2023-05-01T22:44:58.406Z,52.41
2023-05-01T22:47:25.721Z,52.46
2023-05-01T22:49:52.845Z,52.29
2023-05-01T22:52:19.905Z,52.36
2023-05-01T22:54:47.681Z,52.62
2023-05-01T22:57:14.723Z,52.58
2023-05-01T22:59:41.850Z,52.64
2023-05-01T23:02:09.753Z,52.67
2023-05-01T23:04:36.934Z,52.65
2023-05-01T23:07:04.191Z,52.69
2023-05-01T23:09:32.504Z,53.03
2023-05-01T23:11:59.495Z,52.83
2023-05-01T23:14:26.726Z,52.86
2023-05-01T23:16:54.008Z,52.92
2023-05-01T23:19:24.101Z,52.91
2023-05-01T23:21:52.324Z,52.97
2023-05-01T23:24:21.630Z,52.95
2023-05-01T23:26:48.765Z,52.99
2023-05-01T23:29:18.549Z,52.99
2023-05-01T23:31:48.028Z,52.96
2023-05-01T23:34:17.956Z,53.05
2023-05-01T23:36:47.110Z,53.04
2023-05-01T23:39:14.737Z,53.22
2023-05-01T23:41:42.629Z,53.16
2023-05-01T23:44:10.436Z,53.06
2023-05-01T23:46:38.362Z,53.30
2023-05-01T23:49:05.558Z,53.31
2023-05-01T23:51:32.747Z,53.24
2023-05-01T23:54:00.501Z,53.39
2023-05-01T23:56:27.483Z,53.47
2023-05-01T23:58:54.449Z,53.45
